Time;durP1;ratioP1;P1;durP2;ratioP2;P2;SDS_P1;SDS_P2;PMS_P1;PMS_P2;Temp;Humidity;BMP_temperature;BMP_pressure;BME280_temperature;BME280_humidity;BME280_pressure;Samples;Min_cycle;Max_cycle;Signal;HPM_P1;HPM_P2
2020/12/29 00:00:49;;;;;;;11.70;8.10;;;0.40;99.90;;;;;;5031694;28;20603;-65
2020/12/29 00:03:16;;;;;;;9.87;7.13;;;0.40;99.90;;;;;;5031398;28;20713;-65
2020/12/29 00:05:41;;;;;;;10.87;7.20;;;0.50;99.90;;;;;;5031643;28;20171;-65
2020/12/29 00:08:07;;;;;;;8.83;7.17;;;0.60;99.90;;;;;;5031667;28;20206;-66
2020/12/29 00:10:32;;;;;;;12.73;6.83;;;0.70;99.90;;;;;;5031364;28;20733;-65
2020/12/29 00:12:59;;;;;;;8.10;6.83;;;0.70;99.90;;;;;;5031368;28;20183;-66
2020/12/29 00:15:25;;;;;;;8.00;6.40;;;0.70;99.90;;;;;;5031342;28;20217;-66
2020/12/29 00:17:51;;;;;;;10.13;7.43;;;0.70;99.90;;;;;;5031431;28;20183;-66
2020/12/29 00:20:16;;;;;;;9.93;6.40;;;0.70;99.90;;;;;;5031153;28;20206;-66
2020/12/29 00:22:42;;;;;;;7.13;5.90;;;0.70;99.90;;;;;;5031471;28;20181;-65
2020/12/29 00:25:07;;;;;;;9.00;6.53;;;0.60;99.90;;;;;;5031534;28;20186;-65
2020/12/29 00:27:33;;;;;;;9.77;5.93;;;0.60;99.90;;;;;;5031273;28;20199;-65
2020/12/29 00:29:59;;;;;;;10.13;6.93;;;0.60;99.90;;;;;;5031286;28;20192;-64
2020/12/29 00:32:24;;;;;;;10.90;7.43;;;0.60;99.90;;;;;;5031130;28;20172;-65
2020/12/29 00:34:50;;;;;;;10.73;8.03;;;0.60;99.90;;;;;;5031528;28;20179;-65
2020/12/29 00:37:16;;;;;;;10.33;7.50;;;0.50;99.90;;;;;;5031269;28;20554;-65
2020/12/29 00:39:42;;;;;;;10.07;7.70;;;0.50;99.90;;;;;;5031228;28;20233;-64
2020/12/29 00:42:08;;;;;;;9.17;7.77;;;0.50;99.90;;;;;;5031086;28;20583;-65
2020/12/29 00:44:34;;;;;;;10.13;7.13;;;0.50;99.90;;;;;;5031141;28;20523;-64
2020/12/29 00:46:59;;;;;;;9.67;7.47;;;0.40;99.90;;;;;;5031230;28;20186;-64
2020/12/29 00:49:25;;;;;;;11.00;7.87;;;0.30;99.90;;;;;;5032535;28;20183;-65
2020/12/29 00:51:54;;;;;;;11.67;7.33;;;0.30;99.90;;;;;;5035095;28;20715;-65
2020/12/29 00:54:20;;;;;;;11.47;6.93;;;0.30;99.90;;;;;;5035202;28;20222;-64
2020/12/29 00:56:46;;;;;;;12.23;7.93;;;0.30;99.90;;;;;;5035209;28;20550;-64
2020/12/29 00:59:13;;;;;;;14.23;8.47;;;0.30;99.90;;;;;;5034778;28;20190;-65
2020/12/29 01:01:39;;;;;;;12.30;8.23;;;0.30;99.90;;;;;;5034727;28;20187;-65
2020/12/29 01:04:05;;;;;;;11.03;8.33;;;0.20;99.90;;;;;;5034930;28;20675;-64
2020/12/29 01:06:31;;;;;;;14.40;8.50;;;0.20;99.90;;;;;;5035011;28;20172;-65
2020/12/29 01:08:57;;;;;;;10.33;8.03;;;0.10;99.90;;;;;;5034558;28;20716;-64
2020/12/29 01:11:23;;;;;;;12.53;8.77;;;0.10;99.90;;;;;;5034492;28;20191;-65
2020/12/29 01:13:48;;;;;;;16.77;9.03;;;0.10;99.90;;;;;;5034335;28;20267;-65
2020/12/29 01:16:14;;;;;;;11.53;8.07;;;0.10;99.90;;;;;;5034903;28;20632;-64
2020/12/29 01:18:40;;;;;;;13.17;8.70;;;0.10;99.90;;;;;;5034405;28;20691;-65
2020/12/29 01:21:09;;;;;;;10.53;8.23;;;0.10;99.90;;;;;;5034485;28;20241;-65
2020/12/29 01:23:36;;;;;;;12.03;8.23;;;0.10;99.90;;;;;;5034366;28;20172;-64
2020/12/29 01:26:02;;;;;;;11.03;8.60;;;0.10;99.90;;;;;;5034758;28;20183;-64
2020/12/29 01:28:28;;;;;;;12.33;8.80;;;0.20;99.90;;;;;;5034394;28;20597;-64
2020/12/29 01:30:54;;;;;;;10.83;8.10;;;0.20;99.90;;;;;;5034129;28;20209;-65
2020/12/29 01:33:20;;;;;;;10.87;8.30;;;0.20;99.90;;;;;;5034180;28;20180;-65
2020/12/29 01:35:45;;;;;;;12.63;9.33;;;0.30;99.90;;;;;;5034545;28;20499;-64
2020/12/29 01:38:12;;;;;;;16.50;10.97;;;0.30;99.90;;;;;;5034368;28;20660;-65
2020/12/29 01:40:38;;;;;;;14.43;9.67;;;0.30;99.90;;;;;;5033683;28;20234;-65
2020/12/29 01:43:03;;;;;;;12.97;9.30;;;0.30;99.90;;;;;;5034195;28;20218;-64
2020/12/29 01:45:29;;;;;;;14.00;9.10;;;0.30;99.90;;;;;;5034412;28;20706;-64
2020/12/29 01:47:56;;;;;;;17.13;10.20;;;0.30;99.90;;;;;;5034245;28;20199;-64
2020/12/29 01:50:23;;;;;;;14.33;8.40;;;0.40;99.90;;;;;;5033942;28;20207;-64
2020/12/29 01:53:01;;;;;;;10.77;8.53;;;0.40;99.90;;;;;;5034122;28;20179;-65
2020/12/29 01:55:27;;;;;;;10.60;9.23;;;0.40;99.90;;;;;;5033771;28;20586;-65
2020/12/29 01:57:53;;;;;;;11.90;9.03;;;0.40;99.90;;;;;;5034253;28;20664;-64
2020/12/29 02:00:19;;;;;;;14.40;9.53;;;0.40;99.90;;;;;;5033110;28;20361;-64
2020/12/29 02:02:46;;;;;;;12.13;9.20;;;0.40;99.90;;;;;;5033748;28;20293;-64
2020/12/29 02:05:11;;;;;;;15.07;9.40;;;0.50;99.90;;;;;;5034176;28;20538;-64
2020/12/29 02:07:39;;;;;;;14.33;9.57;;;0.60;99.90;;;;;;5033275;28;20191;-65
2020/12/29 02:10:05;;;;;;;11.27;9.93;;;0.70;99.90;;;;;;5033620;28;20187;-65
2020/12/29 02:12:35;;;;;;;13.60;9.83;;;0.80;99.90;;;;;;5033667;28;20590;-64
2020/12/29 02:15:05;;;;;;;11.07;8.40;;;0.90;99.90;;;;;;5033846;28;20252;-65
2020/12/29 02:17:31;;;;;;;14.03;9.80;;;1.00;99.90;;;;;;5032692;28;20186;-65
2020/12/29 02:19:57;;;;;;;13.87;8.80;;;1.10;99.90;;;;;;5034046;28;20203;-65
2020/12/29 02:22:25;;;;;;;13.47;9.00;;;1.20;99.90;;;;;;5033042;28;20175;-65
2020/12/29 02:24:52;;;;;;;15.47;9.10;;;1.40;99.90;;;;;;5033022;28;20636;-65
2020/12/29 02:27:19;;;;;;;12.47;9.30;;;1.40;99.90;;;;;;5033019;28;20213;-65
2020/12/29 02:29:45;;;;;;;14.07;8.47;;;1.50;99.90;;;;;;5032021;28;20168;-65
2020/12/29 02:32:11;;;;;;;11.17;8.70;;;1.50;99.90;;;;;;5033051;28;20174;-64
2020/12/29 02:34:38;;;;;;;11.83;8.17;;;1.60;99.90;;;;;;5033477;28;20570;-65
2020/12/29 02:37:10;;;;;;;10.67;7.80;;;1.70;99.90;;;;;;5033164;28;20164;-64
2020/12/29 02:39:44;;;;;;;9.93;7.23;;;1.70;99.90;;;;;;5032984;28;20160;-65
2020/12/29 02:42:10;;;;;;;12.23;8.67;;;1.70;99.90;;;;;;5032575;28;20272;-65
2020/12/29 02:44:37;;;;;;;12.03;7.90;;;1.70;99.90;;;;;;5033134;28;20176;-64
2020/12/29 02:47:03;;;;;;;9.83;7.93;;;1.80;99.90;;;;;;5033256;28;20176;-65
2020/12/29 02:49:28;;;;;;;14.90;9.30;;;1.80;99.90;;;;;;5033060;28;20535;-65
2020/12/29 02:51:57;;;;;;;13.10;9.00;;;1.70;99.90;;;;;;5032440;28;20200;-64
2020/12/29 02:54:26;;;;;;;13.50;9.50;;;1.70;99.90;;;;;;5033124;28;20220;-64
2020/12/29 02:56:52;;;;;;;15.07;10.60;;;1.60;99.90;;;;;;5032878;28;20703;-65
2020/12/29 02:59:17;;;;;;;14.90;10.10;;;1.70;99.90;;;;;;5032932;28;20175;-65
2020/12/29 03:01:43;;;;;;;15.17;9.80;;;1.60;99.90;;;;;;5032190;28;20204;-65
2020/12/29 03:04:08;;;;;;;13.97;9.37;;;1.60;99.90;;;;;;5031661;28;20664;-65
2020/12/29 03:06:34;;;;;;;15.30;9.43;;;1.50;99.90;;;;;;5032553;28;20266;-65
2020/12/29 03:08:59;;;;;;;13.47;9.77;;;1.50;99.90;;;;;;5032725;28;20203;-65
2020/12/29 03:11:29;;;;;;;17.93;10.47;;;1.50;99.90;;;;;;5031405;28;20202;-64
2020/12/29 03:13:56;;;;;;;16.23;10.77;;;1.40;99.90;;;;;;5032493;28;20176;-65
2020/12/29 03:16:22;;;;;;;14.07;10.27;;;1.40;99.90;;;;;;5031631;28;20183;-65
2020/12/29 03:18:48;;;;;;;16.07;10.97;;;1.40;99.90;;;;;;5032489;28;20175;-65
2020/12/29 03:21:13;;;;;;;13.23;9.83;;;1.40;99.90;;;;;;5032117;28;20233;-65
2020/12/29 03:23:39;;;;;;;15.87;10.27;;;1.30;99.90;;;;;;5032245;28;20175;-65
2020/12/29 03:26:04;;;;;;;18.80;10.07;;;1.20;99.90;;;;;;5032521;28;20267;-65
2020/12/29 03:28:30;;;;;;;16.70;10.03;;;1.10;99.90;;;;;;5032665;28;20549;-65
2020/12/29 03:30:56;;;;;;;13.67;9.23;;;1.10;99.90;;;;;;5031857;28;20207;-65
2020/12/29 03:33:21;;;;;;;16.27;9.83;;;1.10;99.90;;;;;;5032196;28;20645;-65
2020/12/29 03:35:49;;;;;;;14.40;10.30;;;1.20;99.90;;;;;;5033033;28;20257;-70
2020/12/29 03:38:15;;;;;;;14.77;10.03;;;1.20;99.90;;;;;;5033671;28;20300;-67
2020/12/29 03:40:40;;;;;;;18.73;10.67;;;1.20;99.90;;;;;;5032922;28;20234;-70
2020/12/29 03:43:12;;;;;;;14.97;9.90;;;1.30;99.90;;;;;;5033732;28;20188;-69
2020/12/29 03:45:42;;;;;;;15.63;10.30;;;1.40;99.90;;;;;;5034111;28;20182;-69
2020/12/29 03:48:10;;;;;;;13.23;8.97;;;1.50;99.90;;;;;;5033852;28;20211;-68
2020/12/29 03:50:36;;;;;;;13.43;9.20;;;1.60;99.90;;;;;;5033289;28;20188;-69
2020/12/29 03:53:02;;;;;;;11.97;8.93;;;1.70;99.90;;;;;;5033654;28;20186;-69
2020/12/29 03:55:27;;;;;;;15.23;10.20;;;1.70;99.90;;;;;;5033451;28;20637;-68
2020/12/29 03:57:53;;;;;;;13.80;9.53;;;1.80;99.90;;;;;;5033717;28;20652;-70
2020/12/29 04:00:19;;;;;;;18.13;9.70;;;1.80;99.90;;;;;;5033458;28;20202;-68
2020/12/29 04:02:44;;;;;;;14.80;10.33;;;1.80;99.90;;;;;;5033967;28;20574;-72
2020/12/29 04:05:11;;;;;;;16.47;10.77;;;1.80;99.90;;;;;;5033448;28;20172;-69
2020/12/29 04:07:37;;;;;;;17.30;10.87;;;1.80;99.90;;;;;;5033770;28;20278;-70
2020/12/29 04:10:04;;;;;;;15.00;10.50;;;1.80;99.90;;;;;;5033413;28;20196;-69
2020/12/29 04:12:30;;;;;;;15.03;10.77;;;1.80;99.90;;;;;;5033883;28;20179;-68
2020/12/29 04:14:56;;;;;;;17.20;10.97;;;1.80;99.90;;;;;;5033351;28;20180;-64
2020/12/29 04:17:22;;;;;;;15.83;10.40;;;1.80;99.90;;;;;;5031653;28;20176;-64
2020/12/29 04:19:47;;;;;;;17.50;10.63;;;1.80;99.90;;;;;;5031144;28;20175;-64
2020/12/29 04:22:13;;;;;;;16.30;10.70;;;1.90;99.90;;;;;;5031523;28;20164;-63
2020/12/29 04:24:38;;;;;;;15.10;10.83;;;1.90;99.90;;;;;;5031323;28;20180;-64
2020/12/29 04:27:04;;;;;;;15.30;10.37;;;2.00;99.90;;;;;;5031536;28;20171;-64
2020/12/29 04:29:29;;;;;;;15.70;10.77;;;2.10;99.90;;;;;;5031090;28;20672;-64
2020/12/29 04:31:55;;;;;;;18.73;10.03;;;2.20;99.90;;;;;;5031168;28;20632;-64
2020/12/29 04:34:21;;;;;;;15.83;10.10;;;2.20;99.90;;;;;;5031327;28;20217;-64
2020/12/29 04:36:46;;;;;;;18.83;10.27;;;2.20;99.90;;;;;;5031389;28;20176;-63
2020/12/29 04:39:12;;;;;;;17.60;9.63;;;2.30;99.90;;;;;;5031201;28;20540;-64
2020/12/29 04:41:39;;;;;;;13.87;9.57;;;2.30;99.90;;;;;;5023928;22;20303;-63
2020/12/29 04:44:06;;;;;;;17.97;10.43;;;2.30;99.90;;;;;;5011716;28;20168;-63
2020/12/29 04:46:33;;;;;;;15.43;10.37;;;2.30;99.90;;;;;;5011434;28;20180;-64
2020/12/29 04:48:59;;;;;;;17.70;10.17;;;2.40;99.90;;;;;;5011461;28;20212;-63
2020/12/29 04:51:25;;;;;;;23.03;10.93;;;2.30;99.90;;;;;;5010954;28;20200;-64
2020/12/29 04:53:58;;;;;;;21.03;12.37;;;2.30;99.90;;;;;;5011537;28;20183;-64
2020/12/29 04:56:34;;;;;;;18.00;13.13;;;2.30;99.90;;;;;;5011336;28;20184;-64
2020/12/29 04:59:01;;;;;;;23.73;13.30;;;2.20;99.90;;;;;;5011599;28;20179;-64
2020/12/29 05:01:32;;;;;;;21.80;12.00;;;2.10;99.90;;;;;;5010802;28;20195;-64
2020/12/29 05:03:57;;;;;;;19.03;12.37;;;2.10;99.90;;;;;;5011804;28;20179;-64
2020/12/29 05:06:23;;;;;;;18.83;11.87;;;2.00;99.90;;;;;;5011258;28;20536;-63
2020/12/29 05:08:50;;;;;;;20.90;12.50;;;1.90;99.90;;;;;;5011287;28;20692;-64
2020/12/29 05:11:17;;;;;;;15.53;11.00;;;1.80;99.90;;;;;;5011135;28;20566;-65
2020/12/29 05:13:46;;;;;;;22.37;12.70;;;1.80;99.90;;;;;;5010892;28;20188;-64
2020/12/29 05:16:12;;;;;;;20.30;12.63;;;1.70;99.90;;;;;;5010264;28;20181;-64
2020/12/29 05:18:38;;;;;;;18.93;12.70;;;1.60;99.90;;;;;;5010767;28;20187;-64
2020/12/29 05:21:04;;;;;;;20.43;13.67;;;1.60;99.90;;;;;;5010809;28;20246;-64
2020/12/29 05:23:30;;;;;;;25.60;14.27;;;1.50;99.90;;;;;;5011197;28;20175;-64
2020/12/29 05:25:56;;;;;;;28.93;14.33;;;1.50;99.90;;;;;;5010873;28;20235;-64
2020/12/29 05:28:26;;;;;;;21.43;14.00;;;1.50;99.90;;;;;;5011486;28;20200;-64
2020/12/29 05:30:53;;;;;;;21.20;13.07;;;1.50;99.90;;;;;;5010581;28;20184;-64
2020/12/29 05:33:19;;;;;;;23.83;13.87;;;1.40;99.90;;;;;;5010078;28;20207;-64
2020/12/29 05:35:45;;;;;;;21.57;13.17;;;1.40;99.90;;;;;;5012891;28;20204;-64
2020/12/29 05:38:11;;;;;;;20.87;12.87;;;1.30;99.90;;;;;;5014343;28;20207;-64
2020/12/29 05:40:38;;;;;;;23.67;13.37;;;1.20;99.90;;;;;;5013944;28;20555;-64
2020/12/29 05:43:04;;;;;;;21.60;13.03;;;1.20;99.90;;;;;;5014739;28;20176;-64
2020/12/29 05:45:31;;;;;;;22.67;13.80;;;1.10;99.90;;;;;;5014247;28;20176;-64
2020/12/29 05:47:59;;;;;;;28.47;14.93;;;1.10;99.90;;;;;;5014451;28;20265;-64
2020/12/29 05:50:26;;;;;;;31.97;15.83;;;1.00;99.90;;;;;;5014000;28;20291;-64
2020/12/29 05:52:54;;;;;;;27.37;15.57;;;1.00;99.90;;;;;;5014447;28;20541;-64
2020/12/29 05:55:21;;;;;;;29.93;16.03;;;1.00;99.90;;;;;;5014235;28;20168;-64
2020/12/29 05:58:05;;;;;;;31.70;16.63;;;1.00;99.90;;;;;;5014142;28;20168;-64
2020/12/29 06:00:32;;;;;;;24.07;14.10;;;1.00;99.90;;;;;;5013956;28;20196;-64
2020/12/29 06:02:59;;;;;;;26.27;15.13;;;1.00;99.90;;;;;;5014430;28;20168;-64
2020/12/29 06:05:30;;;;;;;29.20;16.67;;;1.00;99.90;;;;;;5014251;28;20273;-64
2020/12/29 06:07:58;;;;;;;28.13;16.57;;;1.00;99.90;;;;;;5015090;28;20534;-64
2020/12/29 06:10:24;;;;;;;28.73;17.07;;;1.10;99.90;;;;;;5013456;28;20669;-64
2020/12/29 06:12:55;;;;;;;29.20;16.00;;;1.10;99.90;;;;;;5014031;28;20215;-64
2020/12/29 06:15:33;;;;;;;27.87;15.83;;;1.10;99.90;;;;;;5013840;28;20181;-64
2020/12/29 06:18:08;;;;;;;28.70;15.93;;;1.20;99.90;;;;;;5014059;28;20306;-64
2020/12/29 06:20:49;;;;;;;25.67;14.80;;;1.20;99.90;;;;;;5013366;28;20199;-64
2020/12/29 06:23:18;;;;;;;25.47;14.57;;;1.30;99.90;;;;;;5014067;28;20209;-64
2020/12/29 06:25:45;;;;;;;25.50;16.03;;;1.30;99.90;;;;;;5013341;28;20188;-64
2020/12/29 06:28:18;;;;;;;30.77;14.70;;;1.30;99.90;;;;;;5014670;28;20290;-64
2020/12/29 06:30:44;;;;;;;30.50;16.43;;;1.30;99.90;;;;;;5015840;28;20189;-64
2020/12/29 06:33:09;;;;;;;26.37;13.60;;;1.40;99.90;;;;;;5015815;28;20348;-64
2020/12/29 06:35:35;;;;;;;26.00;14.57;;;1.40;99.90;;;;;;5014210;28;20211;-64
2020/12/29 06:38:19;;;;;;;26.80;12.57;;;1.40;99.90;;;;;;5013794;28;20703;-64
2020/12/29 06:40:46;;;;;;;29.63;15.13;;;1.40;99.90;;;;;;5012807;28;20208;-64
2020/12/29 06:43:12;;;;;;;28.20;15.40;;;1.50;99.90;;;;;;5013530;28;20572;-64
2020/12/29 06:45:38;;;;;;;26.93;16.17;;;1.40;99.90;;;;;;5013200;28;20176;-64
2020/12/29 06:48:17;;;;;;;28.13;17.30;;;1.40;99.90;;;;;;5013330;28;20288;-63
2020/12/29 06:50:43;;;;;;;28.30;16.40;;;1.40;99.90;;;;;;5012683;28;20192;-64
2020/12/29 06:53:12;;;;;;;24.03;14.27;;;1.30;99.90;;;;;;5013283;28;20175;-64
2020/12/29 06:55:46;;;;;;;27.30;15.93;;;1.30;99.90;;;;;;5012873;28;20219;-64
2020/12/29 06:58:32;;;;;;;27.87;16.87;;;1.20;99.90;;;;;;5013258;28;20172;-63
2020/12/29 07:01:24;;;;;;;24.03;14.67;;;1.20;99.90;;;;;;5010438;28;20700;-65
2020/12/29 07:04:10;;;;;;;29.17;15.10;;;1.20;99.90;;;;;;5012809;28;20191;-63
2020/12/29 07:06:36;;;;;;;29.37;16.60;;;1.20;99.90;;;;;;5012701;28;20187;-64
2020/12/29 07:09:08;;;;;;;30.53;14.80;;;1.30;99.90;;;;;;5012663;28;20204;-64
2020/12/29 07:11:35;;;;;;;27.50;15.27;;;1.30;99.90;;;;;;5012112;28;20200;-63
2020/12/29 07:14:03;;;;;;;26.23;15.73;;;1.40;99.90;;;;;;5012713;28;20210;-65
2020/12/29 07:16:29;;;;;;;29.77;13.80;;;1.30;99.90;;;;;;5012502;28;20175;-64
2020/12/29 07:19:11;;;;;;;33.00;15.30;;;1.40;99.90;;;;;;5012504;28;20179;-64
2020/12/29 07:21:37;;;;;;;21.60;13.23;;;1.40;99.90;;;;;;5011880;28;20223;-65
2020/12/29 07:24:06;;;;;;;28.07;13.20;;;1.40;99.90;;;;;;5012569;28;20172;-64
2020/12/29 07:26:40;;;;;;;22.67;13.40;;;1.30;99.90;;;;;;5012277;28;20657;-64
2020/12/29 07:29:07;;;;;;;25.27;11.60;;;1.40;99.90;;;;;;5012196;28;20207;-64
2020/12/29 07:31:42;;;;;;;17.37;11.63;;;1.30;99.90;;;;;;5012302;28;20593;-65
2020/12/29 07:34:13;;;;;;;22.53;11.43;;;1.30;99.90;;;;;;5012119;28;20529;-64
2020/12/29 07:36:48;;;;;;;20.47;9.87;;;1.20;99.90;;;;;;5012225;28;20250;-65
2020/12/29 07:39:17;;;;;;;19.40;11.03;;;1.20;99.90;;;;;;5012159;28;20290;-64
2020/12/29 07:41:43;;;;;;;20.77;12.47;;;1.20;99.90;;;;;;5011602;28;20219;-64
2020/12/29 07:44:09;;;;;;;24.67;11.67;;;1.20;99.90;;;;;;5012039;28;20187;-63
2020/12/29 07:46:35;;;;;;;24.43;11.93;;;1.20;99.90;;;;;;5010866;28;20223;-64
2020/12/29 07:49:02;;;;;;;29.37;13.27;;;1.30;99.90;;;;;;5011907;28;20200;-64
2020/12/29 07:51:27;;;;;;;22.10;12.00;;;1.30;99.90;;;;;;5011849;28;20927;-64
2020/12/29 07:53:53;;;;;;;26.37;12.83;;;1.30;99.90;;;;;;5011522;28;20184;-65
2020/12/29 07:56:19;;;;;;;29.10;12.00;;;1.40;99.90;;;;;;5011895;28;20596;-64
2020/12/29 07:58:45;;;;;;;30.97;11.90;;;1.50;99.90;;;;;;5011445;28;20254;-63
2020/12/29 08:01:12;;;;;;;24.00;11.70;;;1.60;99.90;;;;;;5011407;28;20192;-64
2020/12/29 08:03:38;;;;;;;20.83;10.87;;;1.60;99.90;;;;;;4992242;28;20169;-64
2020/12/29 08:06:12;;;;;;;17.67;11.43;;;1.80;99.90;;;;;;4992418;28;20181;-63
2020/12/29 08:08:40;;;;;;;21.43;12.20;;;1.80;99.90;;;;;;5011380;28;20604;-65
2020/12/29 08:11:07;;;;;;;23.97;11.70;;;1.90;99.90;;;;;;5011586;28;20279;-65
2020/12/29 08:13:32;;;;;;;23.30;11.43;;;2.00;99.90;;;;;;5011347;28;20180;-65
2020/12/29 08:15:58;;;;;;;22.77;11.77;;;2.10;99.90;;;;;;5010609;28;20179;-64
2020/12/29 08:18:24;;;;;;;22.50;10.93;;;2.20;99.90;;;;;;5011523;28;20202;-64
2020/12/29 08:20:56;;;;;;;17.80;11.17;;;2.20;99.90;;;;;;5011567;28;20349;-64
2020/12/29 08:23:23;;;;;;;20.00;12.73;;;2.30;99.90;;;;;;5011475;28;20229;-64
2020/12/29 08:26:00;;;;;;;20.23;11.50;;;2.30;99.90;;;;;;5009309;28;20182;-64
2020/12/29 08:28:28;;;;;;;16.03;10.67;;;2.30;99.90;;;;;;5011931;28;20537;-64
2020/12/29 08:30:55;;;;;;;23.00;12.10;;;2.40;99.90;;;;;;5011021;28;20196;-64
2020/12/29 08:33:23;;;;;;;21.63;10.27;;;2.40;99.90;;;;;;5011653;28;20283;-64
2020/12/29 08:36:01;;;;;;;17.03;10.13;;;2.40;99.90;;;;;;5011097;28;20180;-65
2020/12/29 08:38:26;;;;;;;16.90;10.43;;;2.40;99.90;;;;;;5011369;28;20179;-64
2020/12/29 08:41:04;;;;;;;20.50;11.27;;;2.50;99.90;;;;;;5011062;28;20216;-65
2020/12/29 08:43:30;;;;;;;34.00;18.57;;;2.50;99.90;;;;;;5011374;28;20263;-65
2020/12/29 08:46:04;;;;;;;20.83;11.03;;;2.50;99.90;;;;;;4991636;28;20177;-64
2020/12/29 08:48:29;;;;;;;20.10;11.77;;;2.60;99.90;;;;;;4991843;28;20254;-64
2020/12/29 08:50:55;;;;;;;16.57;10.53;;;2.70;99.90;;;;;;5010677;28;20692;-64
2020/12/29 08:53:25;;;;;;;16.70;10.23;;;2.80;99.90;;;;;;5011325;28;20164;-64
2020/12/29 08:55:51;;;;;;;20.13;11.50;;;2.80;99.90;;;;;;5010978;28;20307;-64
2020/12/29 08:58:24;;;;;;;16.43;9.93;;;2.90;99.90;;;;;;5011346;28;20255;-64
2020/12/29 09:00:50;;;;;;;17.90;10.20;;;2.90;99.90;;;;;;5010760;28;20569;-65
2020/12/29 09:03:25;;;;;;;17.73;12.40;;;2.90;99.90;;;;;;5011340;28;20583;-65
2020/12/29 09:05:52;;;;;;;17.10;10.97;;;2.80;99.90;;;;;;5011069;28;20191;-64
2020/12/29 09:08:28;;;;;;;18.57;11.77;;;2.80;99.90;;;;;;5010888;28;20327;-64
2020/12/29 09:11:14;;;;;;;18.17;11.23;;;2.70;99.90;;;;;;5013122;28;20234;-65
2020/12/29 09:14:02;;;;;;;18.87;10.63;;;2.60;99.90;;;;;;5014568;28;20182;-64
2020/12/29 09:16:27;;;;;;;13.67;9.67;;;2.60;99.90;;;;;;5012029;28;20165;-63
2020/12/29 09:18:53;;;;;;;15.30;10.70;;;2.60;99.90;;;;;;5005097;28;20179;-63
2020/12/29 09:21:25;;;;;;;16.70;11.30;;;2.60;99.90;;;;;;5014508;28;20250;-64
2020/12/29 09:23:58;;;;;;;14.73;10.63;;;2.70;99.90;;;;;;5013835;28;20211;-64
2020/12/29 09:26:24;;;;;;;15.90;11.10;;;2.90;99.90;;;;;;5014672;28;20195;-64
2020/12/29 09:28:49;;;;;;;15.43;10.10;;;3.10;99.90;;;;;;5014191;28;20208;-64
2020/12/29 09:31:15;;;;;;;19.43;9.90;;;3.30;99.90;;;;;;5013721;28;20756;-64
2020/12/29 09:33:42;;;;;;;14.23;9.13;;;3.50;99.90;;;;;;5014354;28;20184;-63
2020/12/29 09:36:24;;;;;;;11.33;8.40;;;3.70;99.90;;;;;;5014643;28;20215;-64
2020/12/29 09:38:55;;;;;;;13.00;8.20;;;3.80;99.90;;;;;;5013132;28;20180;-62
2020/12/29 09:41:21;;;;;;;13.07;8.03;;;3.80;99.90;;;;;;5003454;28;20639;-63
2020/12/29 09:43:50;;;;;;;14.07;8.37;;;3.80;99.90;;;;;;5013949;28;20180;-64
2020/12/29 09:46:15;;;;;;;12.50;8.50;;;3.80;99.90;;;;;;5016078;28;20660;-64
2020/12/29 09:48:42;;;;;;;15.23;8.77;;;3.80;99.90;;;;;;5015229;28;20204;-64
2020/12/29 09:51:11;;;;;;;14.27;8.43;;;3.80;99.90;;;;;;5014103;28;20188;-64
2020/12/29 09:53:36;;;;;;;13.37;8.83;;;3.80;99.90;;;;;;5014213;28;20172;-64
2020/12/29 09:56:02;;;;;;;13.77;9.50;;;3.80;99.90;;;;;;5013519;28;20528;-63
2020/12/29 09:58:27;;;;;;;13.60;10.10;;;3.80;99.90;;;;;;5014259;28;20246;-66
2020/12/29 10:00:53;;;;;;;14.00;8.80;;;3.80;99.90;;;;;;5013801;28;20592;-64
2020/12/29 10:03:19;;;;;;;19.87;10.67;;;3.90;99.90;;;;;;5014264;28;20315;-63
2020/12/29 10:05:44;;;;;;;14.93;9.90;;;3.80;99.90;;;;;;5013882;28;20540;-63
2020/12/29 10:08:11;;;;;;;16.63;10.20;;;3.80;99.90;;;;;;5014095;28;20708;-63
2020/12/29 10:10:37;;;;;;;18.60;11.10;;;3.90;99.90;;;;;;5013677;28;20195;-64
2020/12/29 10:13:03;;;;;;;16.27;9.47;;;3.80;99.90;;;;;;5014071;28;20168;-65
2020/12/29 10:15:28;;;;;;;17.20;10.33;;;3.80;99.90;;;;;;5013244;28;20203;-64
2020/12/29 10:17:54;;;;;;;11.77;8.93;;;3.80;99.90;;;;;;5013557;28;20176;-64
2020/12/29 10:20:19;;;;;;;20.90;11.20;;;3.90;99.90;;;;;;5013478;28;20196;-64
2020/12/29 10:22:45;;;;;;;14.53;10.00;;;3.90;99.90;;;;;;5013473;28;20169;-63
2020/12/29 10:25:14;;;;;;;12.70;9.33;;;3.90;99.90;;;;;;5013864;28;20637;-63
2020/12/29 10:27:45;;;;;;;13.13;9.70;;;3.90;99.90;;;;;;5013358;28;20192;-64
2020/12/29 10:30:11;;;;;;;18.80;9.90;;;3.90;99.90;;;;;;5013478;28;20199;-64
2020/12/29 10:32:39;;;;;;;18.80;10.87;;;4.00;99.90;;;;;;5013453;28;20173;-64
2020/12/29 10:35:05;;;;;;;21.77;11.37;;;4.10;99.90;;;;;;5013662;28;20176;-63
2020/12/29 10:37:31;;;;;;;19.33;11.97;;;4.20;99.90;;;;;;5013577;28;20173;-64
2020/12/29 10:39:57;;;;;;;15.77;11.17;;;4.40;99.90;;;;;;5012899;28;20180;-64
2020/12/29 10:44:50;;;;;;;14.67;10.30;;;4.70;99.90;;;;;;5050676;28;20752;-64
2020/12/29 10:47:16;;;;;;;14.57;11.17;;;4.90;99.90;;;;;;5053398;28;20167;-64
2020/12/29 10:49:42;;;;;;;19.40;11.27;;;4.90;99.90;;;;;;5052876;28;20317;-64
2020/12/29 10:52:07;;;;;;;15.60;9.67;;;5.00;99.90;;;;;;5052728;28;20197;-63
2020/12/29 10:54:33;;;;;;;15.17;11.40;;;5.00;99.90;;;;;;5052974;28;20171;-64
2020/12/29 10:56:58;;;;;;;16.63;10.93;;;5.10;99.90;;;;;;5052855;28;20207;-64
2020/12/29 10:59:24;;;;;;;16.03;10.70;;;5.10;99.90;;;;;;5052865;28;20177;-64
2020/12/29 11:01:55;;;;;;;16.73;10.63;;;5.00;99.90;;;;;;5052202;28;20195;-64
2020/12/29 11:04:22;;;;;;;17.10;11.27;;;5.00;99.90;;;;;;5052839;28;20163;-64
2020/12/29 11:06:47;;;;;;;15.90;10.50;;;5.00;99.90;;;;;;5052603;28;20159;-64
2020/12/29 11:09:13;;;;;;;22.67;12.30;;;5.00;99.90;;;;;;5052648;28;20210;-66
2020/12/29 11:11:38;;;;;;;13.47;10.57;;;5.00;99.90;;;;;;5052196;28;20667;-64
2020/12/29 11:14:04;;;;;;;13.53;9.97;;;5.10;99.90;;;;;;5052386;28;20163;-64
2020/12/29 11:16:29;;;;;;;14.50;10.90;;;5.10;99.90;;;;;;5052519;28;20170;-64
2020/12/29 11:18:55;;;;;;;21.13;11.17;;;5.10;99.90;;;;;;5052238;28;20643;-64
2020/12/29 11:21:20;;;;;;;19.50;11.27;;;5.10;99.90;;;;;;5052417;28;20221;-64
2020/12/29 11:23:47;;;;;;;16.87;10.03;;;5.10;99.90;;;;;;5052205;28;20171;-64
2020/12/29 11:26:23;;;;;;;15.47;9.80;;;5.20;99.90;;;;;;5052657;28;20650;-63
2020/12/29 11:28:49;;;;;;;14.13;9.77;;;5.20;99.90;;;;;;5052473;28;20206;-64
2020/12/29 11:31:18;;;;;;;12.20;9.17;;;5.30;99.90;;;;;;5052082;28;20191;-64
2020/12/29 11:33:45;;;;;;;20.07;11.10;;;5.20;99.90;;;;;;5051220;28;20171;-64
2020/12/29 11:36:15;;;;;;;16.83;10.27;;;5.30;99.90;;;;;;5052164;28;20166;-63
2020/12/29 11:38:41;;;;;;;14.10;9.30;;;5.40;99.90;;;;;;5051979;28;20187;-64
2020/12/29 11:41:06;;;;;;;15.97;10.37;;;5.60;99.90;;;;;;5051367;28;20205;-64
2020/12/29 11:43:32;;;;;;;13.73;9.33;;;5.50;99.90;;;;;;5051340;28;20206;-64
2020/12/29 11:45:57;;;;;;;12.13;9.10;;;5.50;99.90;;;;;;5051684;28;20187;-65
2020/12/29 11:48:23;;;;;;;13.10;9.90;;;5.50;99.90;;;;;;5052004;28;20260;-64
2020/12/29 11:50:51;;;;;;;14.33;8.80;;;5.50;99.90;;;;;;5050370;28;20285;-64
2020/12/29 11:53:16;;;;;;;11.27;7.47;;;5.40;99.90;;;;;;5051998;28;20188;-64
2020/12/29 11:55:42;;;;;;;17.87;10.20;;;5.30;99.90;;;;;;5051299;28;20179;-64
2020/12/29 11:58:08;;;;;;;17.73;10.87;;;5.30;99.90;;;;;;5051057;28;20259;-64
2020/12/29 12:00:33;;;;;;;14.20;9.67;;;5.40;99.90;;;;;;5051130;28;20206;-64
2020/12/29 12:02:59;;;;;;;20.37;9.47;;;5.50;99.90;;;;;;5051044;28;20186;-64
2020/12/29 12:05:24;;;;;;;14.77;8.83;;;5.90;99.90;;;;;;5051601;28;20643;-64
2020/12/29 12:07:50;;;;;;;12.50;7.67;;;6.20;99.90;;;;;;5051383;28;20214;-64
2020/12/29 12:10:16;;;;;;;15.43;9.23;;;6.40;99.90;;;;;;5051169;28;20209;-65
2020/12/29 12:12:41;;;;;;;14.73;8.83;;;6.40;99.90;;;;;;5051106;28;20185;-64
2020/12/29 12:15:07;;;;;;;19.93;9.53;;;6.30;99.90;;;;;;5051671;28;20537;-64
2020/12/29 12:17:33;;;;;;;11.23;7.23;;;6.30;99.90;;;;;;5051057;28;20167;-64
2020/12/29 12:19:58;;;;;;;11.87;6.50;;;6.50;99.90;;;;;;5053139;28;20191;-63
2020/12/29 12:22:24;;;;;;;9.57;7.00;;;6.80;99.90;;;;;;5053334;28;20194;-63
2020/12/29 12:24:50;;;;;;;12.37;7.00;;;7.10;99.90;;;;;;5053186;28;20690;-64
2020/12/29 12:27:15;;;;;;;7.83;5.97;;;7.30;99.90;;;;;;5051218;28;20179;-64
2020/12/29 12:29:41;;;;;;;9.77;5.87;;;7.30;99.90;;;;;;5051131;28;20217;-63
2020/12/29 12:32:07;;;;;;;6.40;5.30;;;7.30;99.90;;;;;;5050718;28;20190;-64
2020/12/29 12:34:32;;;;;;;8.27;5.93;;;7.20;99.90;;;;;;5051345;28;20681;-64
2020/12/29 12:36:58;;;;;;;13.07;6.90;;;7.10;99.90;;;;;;5051244;28;20206;-63
2020/12/29 12:39:23;;;;;;;12.50;6.10;;;6.90;99.90;;;;;;5051034;28;20277;-64
2020/12/29 12:41:51;;;;;;;8.27;6.10;;;7.10;99.90;;;;;;5050307;28;20281;-64
2020/12/29 12:44:16;;;;;;;7.77;5.30;;;7.10;99.90;;;;;;5052811;28;20202;-63